Marco Island, FL (34145)

9:00 PM EDT on October 20, 2014 (GMT -0400)
Collier Bay, Marco Island | Change Station
CLOSE
Current Station
Personal Weather Station
Location: Marco Island, FL
Elevation: 20 ft
Nearby Weather Stations

Elev 20 ft 25.97 °N, 81.73 °W | Updated 33 seconds ago

Partly Cloudy
Partly Cloudy
78.7 °F
Feels Like 82 °F
N
2.0
Wind Variable Wind from ESE
Gusts 8.0 mph

Today
High -- | Low -- °F
--% Chance of Precip.
Yesterday
High -- | Low -- °F
Precip. -- in
7:28 AM 6:54 PM
Waning Crescent, 8% visible
Pressure 29.95 in
Visibility 10.0 miles
Clouds Mostly Cloudy 5000 ft
Heat Index 82 °F
Dew Point 72 °F
Humidity 81%
Rainfall 0.00 in
Snow Depth Not available.
UV 0.0 out of 12
Pollen 3.60 out of 12
Air Quality Not available.
Flu Activity Local Activity
METAR KAPF 210053Z 14005KT 10SM BKN050 26/22 A2995 RMK AO2 SLP142 T02610222

More Conditions Fewer Conditions

Pressure 29.95 in
Visibility 10.0 miles
Clouds Mostly Cloudy 5000 ft
Heat Index 82 °F
Dew Point 72 °F
Humidity 81%
Rainfall 0.00 in
Snow Depth Not available.
UV 0.0 out of 12
Pollen 3.60 out of 12
Air Quality Not available.
Flu Activity Local Activity
METAR KAPF 210053Z 14005KT 10SM BKN050 26/22 A2995 RMK AO2 SLP142 T02610222

More Conditions Fewer Conditions

10-Day Weather Forecast

Almanac

Astronomy

Oct. 20, 2014 Rise Set
Actual Time 7:28 AM EDT 6:54 PM EDT
Civil Twilight 7:05 AM EDT 7:17 PM EDT
Nautical Twilight 6:38 AM EDT 7:44 PM EDT
Astronomical Twilight 6:11 AM EDT 8:11 PM EDT
Moon 4:33 AM EDT (10/20) 5:01 PM EDT (10/20)
Length of Visible Light 12h 12m
Length of Day
11h 26m
Tomorrow will be 1m 25s shorter.
Waning Crescent, 8% of the Moon is Illuminated
Today
Waning Crescent
Oct 23
New
Oct 30
First Quarter
Nov 6
Full
Nov 14
Last Quarter

Today's Extremes

State Highs State Lows

Community

WunderPhotos

Upload Photos

1,763,576 photos uploaded!

Nearby

Snow Depth

Station Depth Elevation
No new snow has been reported.

Earthquake Activity

City Distance Mag. Time & Date
No recent earthquake activity has been reported nearby.
Minimum magnitude displayed is 2.5.

Coastal Water Temperatures

Place Temperature
Naples, FL 84.9 °F

Nearby Weather Stations